Kezdőlap
METAR-TAF:

METAR-TAF

Repülőterek :

Paganella, Olaszország

földrajzi szélesség: 46-09N, földrajzi hosszúság: 011-02E, magasság: 2125 m

Jelenlegi meteorológiai megfigyelések

A jelentés 21 perccel ezelõtt készült, 08:55 UTC
Északi szél 20 kt
Hőmérséklet -12°C
Páratartalom 51%
Légköri nyomás 1031 hPa
Látótávolság 10 km, vagy több
felhőtlen 1500 m magasságban, és nincs gomolyfelhõ

METAR: LIVP 200855Z 35020KT CAVOK M12/M20 Q1031 RMK SKC MON LIB VAL NIL VIS MIN 9999

Idő: 10:16 (09:16 UTC)


TAF: hiányzik

Meteorológiai megfigyelések és előrejelzések több, mint 4000 repülőtéren (METAR és TAF jelentéseket).

A térképen piros és sárga pontok jelzik az elérhető meteorológiai állomásokat.

Mozgassa az egeret a pont fölött, hogy megjelenjen az állomás neve.

Azután kattintson az időjárási megfigyelések és előrejelzések megtekintéséhez.

A térkép megváltoztatása: kattintson a fekete keresztel jelölt zöld gombra ráközelítéshez, a vonallal jelölt zöld gombra távolításhoz, vagy a zöld nyilakra a szomszédos térképek eléréséhez.


METAR-TAF: